Time;durP1;ratioP1;P1;durP2;ratioP2;P2;SDS_P1;SDS_P2;PMS_P1;PMS_P2;Temp;Humidity;BMP_temperature;BMP_pressure;BME280_temperature;BME280_humidity;BME280_pressure;Samples;Min_cycle;Max_cycle;Signal;HPM_P1;HPM_P2
2022/08/15 00:00:49;;;;;;;5.53;5.03;;;21.50;99.90;;;;;;5050798;28;20287;-53
2022/08/15 00:03:22;;;;;;;5.43;5.10;;;21.50;99.90;;;;;;5051543;28;20272;-55
2022/08/15 00:05:50;;;;;;;4.93;4.73;;;21.50;99.90;;;;;;5051472;28;20228;-55
2022/08/15 00:08:18;;;;;;;5.23;4.83;;;21.50;99.90;;;;;;5051523;28;20198;-55
2022/08/15 00:10:45;;;;;;;4.87;4.63;;;21.40;99.90;;;;;;5049936;28;20256;-54
2022/08/15 00:13:14;;;;;;;5.33;4.93;;;21.40;99.90;;;;;;5050251;28;20227;-53
2022/08/15 00:15:42;;;;;;;5.17;4.83;;;21.40;99.90;;;;;;5050346;28;20212;-54
2022/08/15 00:18:10;;;;;;;5.70;5.20;;;21.40;99.90;;;;;;5051635;28;20263;-54
2022/08/15 00:20:38;;;;;;;5.43;5.07;;;21.40;99.90;;;;;;5051699;28;20217;-54
2022/08/15 00:23:07;;;;;;;4.40;4.20;;;21.50;99.90;;;;;;5051039;28;20259;-53
2022/08/15 00:25:37;;;;;;;5.17;4.83;;;21.40;99.90;;;;;;5051936;28;20194;-54
2022/08/15 00:28:06;;;;;;;5.63;5.03;;;21.40;99.90;;;;;;5051165;28;20280;-55
2022/08/15 00:30:33;;;;;;;4.53;4.33;;;21.30;99.90;;;;;;5051764;28;20264;-55
2022/08/15 00:33:03;;;;;;;5.17;4.90;;;21.40;99.90;;;;;;5049675;28;20237;-54
2022/08/15 00:35:39;;;;;;;5.20;4.90;;;21.40;99.90;;;;;;5050254;28;20252;-60
2022/08/15 00:38:08;;;;;;;4.93;4.57;;;21.50;99.90;;;;;;5045076;28;20208;-55
2022/08/15 00:41:39;;;;;;;5.73;5.30;;;21.50;99.90;;;;;;5049325;28;20748;-54
2022/08/15 00:43:24;;;;;;;4.60;4.23;;;21.60;99.90;;;;;;5048878;28;20197;-54
2022/08/15 00:45:53;;;;;;;4.63;4.43;;;21.80;99.90;;;;;;5050850;28;20293;-55
2022/08/15 00:51:12;;;;;;;5.80;4.17;;;21.70;99.90;;;;;;5050748;28;20229;-56
2022/08/15 00:53:42;;;;;;;4.10;3.80;;;21.70;99.90;;;;;;5050370;28;20226;-53
2022/08/15 00:56:11;;;;;;;3.37;3.17;;;21.80;99.90;;;;;;5051446;28;20256;-55
2022/08/15 00:58:40;;;;;;;3.30;3.20;;;21.80;99.90;;;;;;5051615;28;20259;-56
2022/08/15 01:01:10;;;;;;;3.20;3.00;;;21.70;99.90;;;;;;5051609;28;20316;-55
2022/08/15 01:03:41;;;;;;;3.20;2.90;;;21.80;99.90;;;;;;5047307;28;20197;-54
2022/08/15 01:06:09;;;;;;;3.27;3.17;;;21.80;99.90;;;;;;5051022;28;20221;-54
2022/08/15 01:08:39;;;;;;;2.73;2.60;;;21.80;99.90;;;;;;5051453;28;20198;-55
2022/08/15 01:11:13;;;;;;;3.40;3.13;;;21.80;99.90;;;;;;5049914;28;20595;-54
2022/08/15 01:13:42;;;;;;;4.83;3.73;;;21.80;99.90;;;;;;5050814;28;20263;-55
2022/08/15 01:16:09;;;;;;;12.40;6.67;;;21.70;99.90;;;;;;5049741;28;20210;-54
2022/08/15 01:18:38;;;;;;;15.10;7.77;;;21.60;99.90;;;;;;5051304;28;20224;-53
2022/08/15 01:21:13;;;;;;;14.50;6.60;;;21.20;99.90;;;;;;5050385;28;20225;-54
2022/08/15 01:23:51;;;;;;;8.60;6.73;;;20.80;99.90;;;;;;5050025;28;20227;-53
2022/08/15 01:26:21;;;;;;;14.77;8.17;;;20.60;99.90;;;;;;5051034;28;20198;-53
2022/08/15 01:28:49;;;;;;;11.80;7.23;;;20.40;99.90;;;;;;5050220;28;20248;-54
2022/08/15 01:31:19;;;;;;;8.13;6.97;;;20.10;99.90;;;;;;5052079;28;20303;-53
2022/08/15 01:33:47;;;;;;;9.60;6.80;;;19.90;99.90;;;;;;5053800;28;20217;-53
2022/08/15 01:36:15;;;;;;;6.77;6.23;;;19.80;99.90;;;;;;5054845;28;20229;-53
2022/08/15 01:38:47;;;;;;;10.80;6.33;;;19.60;99.90;;;;;;5054805;28;20214;-54
2022/08/15 01:41:23;;;;;;;6.30;5.87;;;19.50;99.90;;;;;;5050681;28;20228;-55
2022/08/15 01:43:58;;;;;;;6.83;6.43;;;19.40;99.90;;;;;;5052881;28;20280;-54
2022/08/15 01:46:32;;;;;;;6.87;6.47;;;19.40;99.90;;;;;;5054577;28;20260;-53
2022/08/15 01:49:02;;;;;;;7.53;6.93;;;19.30;99.90;;;;;;5052713;28;20200;-53
2022/08/15 01:51:29;;;;;;;5.90;5.50;;;19.30;99.90;;;;;;5049983;28;20229;-53
2022/08/15 01:54:04;;;;;;;5.83;5.50;;;19.40;99.90;;;;;;5052256;28;20784;-53
2022/08/15 01:56:35;;;;;;;6.87;6.37;;;19.40;99.90;;;;;;5053567;28;20251;-54
2022/08/15 01:59:04;;;;;;;6.97;6.33;;;19.40;99.90;;;;;;5045709;28;20202;-53
2022/08/15 02:01:43;;;;;;;7.27;6.63;;;19.40;99.90;;;;;;5054006;28;20225;-54
2022/08/15 02:04:12;;;;;;;9.23;7.37;;;19.30;99.90;;;;;;5053181;28;20194;-54
2022/08/15 02:06:39;;;;;;;7.57;7.17;;;19.30;99.90;;;;;;5052253;28;20205;-54
2022/08/15 02:09:09;;;;;;;6.83;6.43;;;19.40;99.90;;;;;;5052922;28;20206;-53
2022/08/15 02:11:37;;;;;;;7.13;6.57;;;19.20;99.90;;;;;;5054112;28;20268;-53
2022/08/15 02:14:04;;;;;;;7.80;6.87;;;19.20;99.90;;;;;;5052711;28;20244;-54
2022/08/15 02:16:35;;;;;;;6.67;6.07;;;19.20;99.90;;;;;;5052173;28;20226;-54
2022/08/15 02:19:02;;;;;;;7.93;7.33;;;19.20;99.90;;;;;;5050413;28;20216;-55
2022/08/15 02:21:29;;;;;;;7.83;7.13;;;19.10;99.90;;;;;;5053583;28;20719;-54
2022/08/15 02:23:57;;;;;;;8.07;7.37;;;19.10;99.90;;;;;;5053584;28;20252;-53
2022/08/15 02:26:24;;;;;;;9.27;7.70;;;19.10;99.90;;;;;;5053884;28;20201;-54
2022/08/15 02:28:52;;;;;;;7.10;6.60;;;19.10;99.90;;;;;;5051565;28;20214;-53
2022/08/15 02:31:24;;;;;;;7.43;6.93;;;18.90;99.90;;;;;;5051707;28;20344;-54
2022/08/15 02:33:55;;;;;;;7.97;7.00;;;18.90;99.90;;;;;;5053469;28;20222;-55
2022/08/15 02:36:24;;;;;;;6.53;6.23;;;18.90;99.90;;;;;;5053988;28;20263;-53
2022/08/15 02:38:51;;;;;;;8.37;7.53;;;18.80;99.90;;;;;;5052413;28;20644;-54
2022/08/15 02:41:22;;;;;;;7.40;7.00;;;18.80;99.90;;;;;;5052189;28;20276;-54
2022/08/15 02:43:50;;;;;;;7.40;6.80;;;18.70;99.90;;;;;;5048595;28;20212;-54
2022/08/15 02:46:19;;;;;;;7.53;7.03;;;18.70;99.90;;;;;;5052385;28;20259;-53
2022/08/15 02:48:48;;;;;;;8.10;7.60;;;18.60;99.90;;;;;;5052621;28;20206;-54
2022/08/15 02:51:17;;;;;;;8.37;6.77;;;18.70;99.90;;;;;;5053219;28;20217;-54
2022/08/15 02:53:49;;;;;;;6.83;6.43;;;18.70;99.90;;;;;;5053349;28;20271;-54
2022/08/15 02:56:18;;;;;;;7.60;7.00;;;18.70;99.90;;;;;;5050599;28;20263;-54
2022/08/15 02:58:45;;;;;;;8.43;7.23;;;18.70;99.90;;;;;;5053271;28;20706;-54
2022/08/15 03:01:13;;;;;;;7.37;6.73;;;18.80;99.90;;;;;;5053547;28;20327;-53
2022/08/15 03:03:45;;;;;;;7.40;7.00;;;18.80;99.90;;;;;;5053239;28;20233;-53
2022/08/15 03:06:15;;;;;;;6.13;5.83;;;18.80;99.90;;;;;;5047186;28;20198;-55
2022/08/15 03:08:42;;;;;;;7.33;6.83;;;18.80;99.90;;;;;;5050103;28;20577;-54
2022/08/15 03:11:10;;;;;;;8.57;8.00;;;18.80;99.90;;;;;;5048181;28;20598;-53
2022/08/15 03:13:39;;;;;;;7.30;6.67;;;18.70;99.90;;;;;;5052423;28;20264;-52
2022/08/15 03:16:07;;;;;;;7.37;6.87;;;18.70;99.90;;;;;;5050148;28;20683;-54
2022/08/15 03:18:35;;;;;;;8.33;7.73;;;18.70;99.90;;;;;;5044700;28;20244;-53
2022/08/15 03:21:07;;;;;;;6.13;5.70;;;18.70;99.90;;;;;;5039664;28;20292;-53
2022/08/15 03:23:35;;;;;;;7.73;7.13;;;18.70;99.90;;;;;;5041907;28;20202;-53
2022/08/15 03:26:04;;;;;;;7.27;6.80;;;18.70;99.90;;;;;;5039292;28;20574;-53
2022/08/15 03:28:33;;;;;;;7.13;6.73;;;18.70;99.90;;;;;;5042534;28;20617;-53
2022/08/15 03:31:03;;;;;;;7.90;7.20;;;18.70;99.90;;;;;;5039124;28;20301;-55
2022/08/15 03:33:32;;;;;;;6.80;6.17;;;18.80;99.90;;;;;;5040012;28;20275;-55
2022/08/15 03:36:00;;;;;;;5.70;5.40;;;18.80;99.90;;;;;;5044973;28;20229;-54
2022/08/15 03:38:28;;;;;;;6.03;5.53;;;18.80;99.90;;;;;;5032983;28;20303;-54
2022/08/15 03:40:55;;;;;;;5.60;5.13;;;18.70;99.90;;;;;;5043548;28;20222;-53
2022/08/15 03:43:26;;;;;;;5.43;5.13;;;18.60;99.90;;;;;;5044403;28;20191;-53
2022/08/15 03:45:56;;;;;;;6.17;5.73;;;18.70;99.90;;;;;;5045865;28;20304;-53
2022/08/15 03:48:25;;;;;;;5.90;5.33;;;18.60;99.90;;;;;;5050979;28;20499;-55
2022/08/15 03:50:54;;;;;;;5.00;4.60;;;18.60;99.90;;;;;;5049677;28;20275;-54
2022/08/15 03:53:21;;;;;;;4.10;3.90;;;18.60;99.90;;;;;;5044263;28;20651;-54
2022/08/15 03:55:50;;;;;;;4.97;4.57;;;18.60;99.90;;;;;;5041247;28;20609;-54
2022/08/15 03:58:17;;;;;;;5.27;4.97;;;18.60;99.90;;;;;;5043967;28;20237;-54
2022/08/15 04:00:47;;;;;;;5.93;5.63;;;18.60;99.90;;;;;;5041200;28;20246;-54
2022/08/15 04:03:17;;;;;;;8.43;7.73;;;18.60;99.90;;;;;;5047749;28;20607;-53
2022/08/15 04:05:50;;;;;;;8.30;7.57;;;18.60;99.90;;;;;;5046005;28;20650;-53
2022/08/15 04:08:19;;;;;;;6.73;6.23;;;18.60;99.90;;;;;;5034316;28;20234;-53
2022/08/15 04:10:49;;;;;;;8.57;7.67;;;18.60;99.90;;;;;;5041476;28;20594;-53
2022/08/15 04:13:18;;;;;;;8.17;7.60;;;18.60;99.90;;;;;;5037908;28;20591;-53
2022/08/15 04:15:45;;;;;;;9.40;8.70;;;18.60;99.90;;;;;;5044235;28;20237;-54
2022/08/15 04:18:12;;;;;;;7.83;7.40;;;18.50;99.90;;;;;;5038338;28;20696;-52
2022/08/15 04:20:39;;;;;;;10.07;9.37;;;18.60;99.90;;;;;;5044452;28;20258;-54
2022/08/15 04:23:07;;;;;;;13.00;11.07;;;18.60;99.90;;;;;;5031588;28;20191;-53
2022/08/15 04:25:36;;;;;;;15.27;10.47;;;18.60;99.90;;;;;;5031776;28;20264;-53
2022/08/15 04:28:04;;;;;;;11.37;10.63;;;18.50;99.90;;;;;;5035814;28;20201;-53
2022/08/15 04:30:35;;;;;;;11.97;11.00;;;18.50;99.90;;;;;;5043663;28;20225;-53
2022/08/15 04:33:09;;;;;;;10.33;9.43;;;18.60;99.90;;;;;;5042861;28;20214;-53
2022/08/15 04:35:36;;;;;;;9.17;8.57;;;18.50;99.90;;;;;;5039158;28;20739;-54
2022/08/15 04:38:04;;;;;;;9.67;8.97;;;18.50;99.90;;;;;;5045360;28;20340;-53
2022/08/15 04:40:31;;;;;;;12.47;11.20;;;18.50;99.90;;;;;;5042671;28;20242;-53
2022/08/15 04:43:02;;;;;;;12.10;11.03;;;18.50;99.90;;;;;;5035343;28;20333;-52
2022/08/15 04:45:31;;;;;;;11.03;10.13;;;18.50;99.90;;;;;;5031788;28;20198;-53
2022/08/15 04:48:02;;;;;;;9.63;9.03;;;18.50;99.90;;;;;;5039591;28;20567;-53
2022/08/15 04:50:30;;;;;;;11.27;10.10;;;18.40;99.90;;;;;;5036105;28;20236;-54
2022/08/15 04:52:58;;;;;;;10.60;9.80;;;18.40;99.90;;;;;;5049434;28;20209;-53
2022/08/15 04:55:27;;;;;;;10.10;9.30;;;18.40;99.90;;;;;;5039102;28;20198;-54
2022/08/15 04:57:55;;;;;;;10.80;10.07;;;18.40;99.90;;;;;;5038636;28;20202;-53
2022/08/15 05:00:27;;;;;;;10.17;9.27;;;18.40;99.90;;;;;;5046481;28;20225;-52
2022/08/15 05:03:03;;;;;;;10.50;9.77;;;18.50;99.90;;;;;;5043441;28;20202;-53
2022/08/15 05:05:32;;;;;;;11.03;10.13;;;18.50;99.90;;;;;;5046009;28;20197;-53
2022/08/15 05:07:59;;;;;;;10.53;9.83;;;18.40;99.90;;;;;;5048543;28;20291;-54
2022/08/15 05:10:27;;;;;;;12.00;11.10;;;18.40;99.90;;;;;;5049539;28;20744;-54
2022/08/15 05:12:54;;;;;;;8.43;7.83;;;18.40;99.90;;;;;;5047962;28;20201;-54
2022/08/15 05:15:22;;;;;;;9.70;9.10;;;18.40;99.90;;;;;;5043530;28;20282;-54
2022/08/15 05:17:50;;;;;;;10.90;10.00;;;18.50;99.90;;;;;;5047907;28;20726;-54
2022/08/15 05:20:21;;;;;;;11.13;10.10;;;18.60;99.90;;;;;;5043152;28;20213;-54
2022/08/15 05:23:01;;;;;;;10.03;9.23;;;18.60;99.90;;;;;;5050329;28;20209;-53
2022/08/15 05:25:29;;;;;;;9.50;8.90;;;18.70;99.90;;;;;;5051165;28;20189;-54
2022/08/15 05:27:59;;;;;;;9.13;8.47;;;18.80;99.90;;;;;;5050294;28;20265;-53
2022/08/15 05:30:27;;;;;;;10.40;9.50;;;18.80;99.90;;;;;;5045524;28;20593;-53
2022/08/15 05:33:04;;;;;;;10.07;9.37;;;18.90;99.90;;;;;;5045991;28;20198;-53
2022/08/15 05:35:33;;;;;;;10.20;9.47;;;18.90;99.90;;;;;;5046638;28;20606;-53
2022/08/15 05:38:07;;;;;;;9.23;8.63;;;18.90;99.90;;;;;;5050172;28;20198;-53
2022/08/15 05:40:41;;;;;;;10.90;10.00;;;18.90;99.90;;;;;;5039780;28;20226;-53
2022/08/15 05:43:18;;;;;;;11.37;10.27;;;19.00;99.90;;;;;;5041969;28;20209;-53
2022/08/15 05:45:58;;;;;;;9.17;8.43;;;19.50;99.90;;;;;;5046298;28;20206;-53
2022/08/15 05:48:31;;;;;;;9.83;9.13;;;20.20;99.90;;;;;;5044863;28;20221;-54
2022/08/15 05:51:07;;;;;;;9.23;8.47;;;20.80;99.90;;;;;;5041735;28;20218;-53
2022/08/15 05:53:49;;;;;;;9.10;8.40;;;22.00;99.90;;;;;;5041971;28;20240;-54
2022/08/15 05:56:24;;;;;;;9.83;8.73;;;23.10;99.90;;;;;;5050254;28;20624;-54
2022/08/15 05:58:55;;;;;;;10.83;9.47;;;23.00;99.90;;;;;;5040733;28;20566;-54
2022/08/15 06:01:29;;;;;;;9.50;8.83;;;22.80;99.90;;;;;;5053115;28;20327;-53
2022/08/15 06:03:59;;;;;;;8.60;7.73;;;22.50;99.90;;;;;;5034457;28;20984;-54
2022/08/15 06:06:31;;;;;;;9.50;8.77;;;22.10;99.90;;;;;;5049394;28;20219;-54
2022/08/15 06:09:05;;;;;;;8.40;7.80;;;21.70;99.90;;;;;;5048255;28;20217;-54
2022/08/15 06:11:39;;;;;;;8.30;7.70;;;21.40;99.90;;;;;;5049226;28;20301;-54
2022/08/15 06:14:14;;;;;;;8.93;8.43;;;22.30;99.90;;;;;;5040357;28;20216;-53
2022/08/15 06:16:46;;;;;;;7.53;7.03;;;22.90;99.90;;;;;;5045032;28;20197;-53
2022/08/15 06:19:23;;;;;;;8.03;7.53;;;23.90;99.90;;;;;;5052614;28;20198;-54
2022/08/15 06:22:00;;;;;;;8.03;7.53;;;24.30;99.90;;;;;;5049011;28;20274;-54
2022/08/15 06:24:37;;;;;;;7.47;6.87;;;24.80;99.90;;;;;;5052290;28;20457;-54
2022/08/15 06:27:11;;;;;;;7.00;6.50;;;24.70;99.90;;;;;;5048799;28;20197;-54
2022/08/15 06:30:06;;;;;;;6.30;5.90;;;24.90;99.90;;;;;;5047628;28;20229;-54
2022/08/15 06:32:40;;;;;;;5.50;5.27;;;25.00;99.90;;;;;;5019193;28;20277;-54
2022/08/15 06:35:18;;;;;;;7.00;6.60;;;25.80;99.90;;;;;;5043712;28;20747;-54
2022/08/15 06:37:58;;;;;;;7.17;6.67;;;26.70;99.90;;;;;;5040915;28;20907;-54
2022/08/15 06:40:33;;;;;;;6.10;5.73;;;27.00;99.90;;;;;;5043095;28;20218;-54
2022/08/15 06:43:07;;;;;;;6.47;6.07;;;27.00;99.90;;;;;;5040787;28;20585;-54
2022/08/15 06:45:38;;;;;;;5.53;5.33;;;27.10;99.90;;;;;;5048406;28;20283;-54
2022/08/15 06:48:08;;;;;;;5.93;5.57;;;27.00;99.90;;;;;;5048709;28;20209;-54
2022/08/15 06:50:40;;;;;;;5.90;5.70;;;26.30;99.90;;;;;;5044137;28;20226;-54
2022/08/15 06:53:12;;;;;;;5.70;5.50;;;26.60;99.90;;;;;;5050526;28;20206;-54
2022/08/15 06:55:48;;;;;;;6.73;6.40;;;26.30;99.90;;;;;;5040886;28;20226;-54
2022/08/15 06:58:20;;;;;;;6.13;5.73;;;25.60;99.90;;;;;;5037542;28;20667;-54
2022/08/15 07:01:02;;;;;;;5.73;5.50;;;24.60;99.90;;;;;;5042583;28;20257;-53
2022/08/15 07:03:39;;;;;;;6.67;6.30;;;24.00;99.90;;;;;;5037605;28;20635;-53
2022/08/15 07:06:09;;;;;;;6.50;6.20;;;23.50;99.90;;;;;;5052114;28;20189;-54
2022/08/15 07:08:42;;;;;;;7.60;7.00;;;23.00;99.90;;;;;;5047768;28;20672;-54
2022/08/15 07:11:16;;;;;;;7.60;6.90;;;22.60;99.90;;;;;;5044228;28;20694;-54
2022/08/15 07:13:55;;;;;;;8.80;8.20;;;22.40;99.90;;;;;;5038401;28;20263;-54
2022/08/15 07:16:30;;;;;;;8.10;7.43;;;22.10;99.90;;;;;;5041964;28;20225;-54
2022/08/15 07:19:01;;;;;;;8.90;8.20;;;22.00;99.90;;;;;;5048928;28;20255;-54
2022/08/15 07:21:29;;;;;;;9.43;8.70;;;21.70;99.90;;;;;;5046865;28;20287;-53
2022/08/15 07:24:08;;;;;;;9.53;8.93;;;21.50;99.90;;;;;;5043544;28;20202;-53
2022/08/15 07:26:46;;;;;;;9.47;8.73;;;21.30;99.90;;;;;;5039610;28;20208;-53
2022/08/15 07:29:29;;;;;;;9.23;8.60;;;21.20;99.90;;;;;;5039264;28;20201;-53
2022/08/15 07:32:01;;;;;;;10.57;9.77;;;21.10;99.90;;;;;;5048207;28;20694;-54
2022/08/15 07:34:30;;;;;;;11.33;10.20;;;21.20;99.90;;;;;;5043888;28;20224;-54
2022/08/15 07:37:01;;;;;;;9.63;8.97;;;21.60;99.90;;;;;;5043704;28;20216;-54
2022/08/15 07:39:37;;;;;;;9.53;8.87;;;22.60;99.90;;;;;;5046572;28;20813;-54
2022/08/15 07:42:15;;;;;;;9.30;8.70;;;23.10;99.90;;;;;;5044346;28;20201;-54
2022/08/15 07:44:51;;;;;;;9.13;8.27;;;24.10;99.90;;;;;;5045626;28;20274;-54
2022/08/15 07:47:24;;;;;;;7.40;6.93;;;25.50;99.90;;;;;;5045124;28;20631;-54
2022/08/15 07:50:00;;;;;;;8.43;7.73;;;26.40;99.90;;;;;;5041515;28;20395;-54
2022/08/15 07:52:27;;;;;;;6.60;6.30;;;27.00;99.90;;;;;;5040077;28;20217;-54
2022/08/15 07:54:58;;;;;;;6.70;6.30;;;27.50;99.90;;;;;;5041688;28;20222;-53
2022/08/15 07:57:29;;;;;;;7.00;6.50;;;27.80;99.90;;;;;;5038119;28;20199;-53
2022/08/15 08:00:13;;;;;;;5.93;5.63;;;28.30;99.90;;;;;;5035382;28;20279;-54
2022/08/15 08:02:44;;;;;;;6.17;5.67;;;28.10;99.90;;;;;;5046072;28;20464;-54
2022/08/15 08:05:12;;;;;;;6.40;6.10;;;27.80;99.90;;;;;;5043551;28;20671;-54
2022/08/15 08:07:42;;;;;;;5.20;5.00;;;28.20;99.90;;;;;;5043385;28;20573;-54
2022/08/15 08:10:17;;;;;;;6.18;5.70;;;28.90;99.90;;;;;;5046871;28;20225;-54
2022/08/15 08:12:58;;;;;;;6.60;6.20;;;29.20;99.90;;;;;;5048308;28;20198;-55
2022/08/15 08:15:30;;;;;;;6.28;5.88;;;29.50;99.90;;;;;;5042781;28;20240;-54
2022/08/15 08:18:05;;;;;;;6.15;5.85;;;29.50;99.90;;;;;;5047819;28;20198;-55
2022/08/15 08:20:41;;;;;;;5.72;5.53;;;30.00;99.90;;;;;;5050384;28;20304;-54
2022/08/15 08:23:16;;;;;;;6.35;5.80;;;29.80;99.90;;;;;;5045828;28;20193;-54
2022/08/15 08:25:58;;;;;;;6.20;5.85;;;29.30;99.90;;;;;;5046568;28;20228;-54
2022/08/15 08:28:35;;;;;;;6.60;6.20;;;29.90;99.90;;;;;;5047759;28;20572;-53
2022/08/15 08:31:11;;;;;;;5.80;5.50;;;30.30;99.90;;;;;;5050510;28;20221;-55
2022/08/15 08:33:51;;;;;;;6.93;5.28;;;30.00;99.90;;;;;;5042370;28;20212;-54
2022/08/15 08:36:26;;;;;;;5.15;4.95;;;30.30;99.90;;;;;;5049123;28;20189;-54
2022/08/15 08:39:03;;;;;;;5.78;5.47;;;30.20;99.90;;;;;;5048712;28;20205;-54
2022/08/15 08:41:39;;;;;;;7.53;6.15;;;29.40;99.90;;;;;;5042987;28;20248;-54
2022/08/15 08:44:17;;;;;;;6.25;5.78;;;29.50;99.90;;;;;;5046200;28;20698;-55
2022/08/15 08:47:02;;;;;;;6.10;5.80;;;29.90;99.90;;;;;;5046986;28;20196;-54
2022/08/15 08:49:38;;;;;;;5.25;5.05;;;29.80;99.90;;;;;;5047434;28;20198;-54
2022/08/15 08:52:13;;;;;;;5.47;5.03;;;30.00;99.90;;;;;;5043494;28;20197;-54
2022/08/15 08:54:50;;;;;;;4.78;4.57;;;30.50;99.90;;;;;;5045288;28;20221;-54
2022/08/15 08:57:24;;;;;;;5.45;5.03;;;30.50;99.90;;;;;;5047323;28;20194;-54
2022/08/15 08:59:59;;;;;;;6.32;5.90;;;30.50;99.90;;;;;;5047029;28;20646;-54
2022/08/15 09:02:28;;;;;;;6.20;5.80;;;30.80;99.90;;;;;;5044834;28;20204;-54
2022/08/15 09:05:02;;;;;;;6.25;5.63;;;31.00;99.90;;;;;;5045467;28;20651;-55
2022/08/15 09:07:33;;;;;;;6.88;6.22;;;31.60;99.90;;;;;;5043938;28;20201;-54
2022/08/15 09:10:06;;;;;;;6.28;6.07;;;31.70;99.90;;;;;;5047376;28;20222;-54
2022/08/15 09:15:28;;;;;;;5.65;5.47;;;31.70;99.90;;;;;;5042780;28;20336;-55
2022/08/15 09:18:04;;;;;;;5.55;5.25;;;32.10;99.90;;;;;;5045401;28;20201;-54
2022/08/15 09:20:34;;;;;;;4.07;3.88;;;31.90;99.90;;;;;;5049557;28;20271;-55
2022/08/15 09:23:01;;;;;;;3.30;3.20;;;31.80;99.90;;;;;;5044414;28;20256;-55
2022/08/15 09:25:30;;;;;;;4.15;3.85;;;32.10;99.90;;;;;;5045782;28;20224;-54
2022/08/15 09:28:09;;;;;;;4.65;4.35;;;31.90;99.90;;;;;;5046063;28;20197;-55
2022/08/15 09:30:37;;;;;;;4.78;4.60;;;31.90;99.90;;;;;;5040693;28;20456;-54
2022/08/15 09:33:15;;;;;;;4.30;4.10;;;31.90;99.90;;;;;;5045321;28;20736;-54
2022/08/15 09:36:27;;;;;;;5.30;4.90;;;32.50;99.90;;;;;;5043573;28;20620;-54
2022/08/15 09:39:03;;;;;;;5.07;4.75;;;32.90;99.90;;;;;;5045752;28;20267;-55
2022/08/15 09:41:51;;;;;;;5.55;3.80;;;33.00;99.90;;;;;;5038351;28;20223;-54
2022/08/15 09:44:48;;;;;;;3.40;3.33;;;32.90;99.90;;;;;;5044839;28;20244;-55
2022/08/15 09:47:48;;;;;;;4.00;3.80;;;32.40;99.90;;;;;;5042667;28;20198;-55
2022/08/15 09:50:28;;;;;;;4.88;4.50;;;32.50;99.90;;;;;;5045656;28;20234;-54
2022/08/15 09:53:08;;;;;;;3.45;3.35;;;32.30;99.90;;;;;;5049120;28;20194;-55
2022/08/15 09:55:44;;;;;;;3.75;3.65;;;32.40;99.90;;;;;;5049793;28;20718;-55
2022/08/15 09:58:17;;;;;;;3.80;3.70;;;32.50;99.90;;;;;;5048387;28;20244;-55
2022/08/15 10:01:00;;;;;;;3.58;3.40;;;32.70;99.90;;;;;;5050824;28;20287;-55
2022/08/15 10:03:52;;;;;;;4.13;4.03;;;32.60;99.80;;;;;;5049191;28;20322;-54
2022/08/15 10:06:23;;;;;;;3.30;3.10;;;32.60;98.80;;;;;;5047772;28;20201;-54
2022/08/15 10:09:17;;;;;;;3.85;3.65;;;32.60;99.10;;;;;;5047608;28;20201;-55
2022/08/15 10:12:31;;;;;;;3.38;3.10;;;32.70;99.90;;;;;;5049051;28;20213;-54
2022/08/15 10:15:04;;;;;;;2.70;2.58;;;32.60;99.90;;;;;;5014020;28;20241;-55
2022/08/15 10:17:46;;;;;;;3.40;3.20;;;32.60;99.90;;;;;;5040167;28;20209;-55
2022/08/15 10:20:58;;;;;;;3.42;3.33;;;32.80;99.90;;;;;;5046045;28;20268;-54
2022/08/15 10:23:29;;;;;;;3.20;3.20;;;33.10;98.60;;;;;;5044986;28;20255;-55
2022/08/15 10:26:24;;;;;;;3.08;2.97;;;33.20;99.10;;;;;;5045989;28;20229;-55
2022/08/15 10:29:10;;;;;;;3.47;3.38;;;32.70;98.80;;;;;;5033019;28;20537;-55
2022/08/15 10:31:49;;;;;;;3.85;3.60;;;33.10;97.80;;;;;;5045972;28;20284;-55
2022/08/15 10:34:35;;;;;;;2.78;2.72;;;33.30;97.60;;;;;;5046069;28;20198;-55
2022/08/15 10:37:29;;;;;;;3.30;3.10;;;33.60;97.40;;;;;;5043236;28;20198;-55
2022/08/15 10:40:21;;;;;;;3.10;2.97;;;33.10;96.90;;;;;;5025974;28;20221;-55
2022/08/15 10:43:00;;;;;;;4.07;3.87;;;33.00;97.60;;;;;;5046377;28;20479;-54
2022/08/15 10:45:36;;;;;;;3.38;2.95;;;32.40;99.30;;;;;;5049358;28;20294;-54
2022/08/15 10:48:10;;;;;;;2.80;2.60;;;32.80;97.60;;;;;;5052751;28;20205;-54
2022/08/15 10:50:52;;;;;;;3.40;3.25;;;32.70;98.40;;;;;;5045856;28;20460;-55
2022/08/15 10:53:29;;;;;;;2.80;2.70;;;32.90;96.40;;;;;;5049440;28;20206;-55
2022/08/15 10:56:09;;;;;;;3.40;3.17;;;31.60;99.80;;;;;;5048587;28;20283;-54
2022/08/15 10:58:36;;;;;;;3.22;3.13;;;31.80;97.70;;;;;;5049084;28;20841;-55
2022/08/15 11:01:07;;;;;;;3.58;3.30;;;31.30;98.80;;;;;;5050337;28;20232;-54
2022/08/15 11:03:43;;;;;;;2.85;2.75;;;30.90;99.90;;;;;;5045589;28;20204;-54
2022/08/15 11:06:14;;;;;;;2.40;2.30;;;30.90;96.90;;;;;;5050492;28;20289;-54
2022/08/15 11:08:47;;;;;;;2.33;2.22;;;31.00;97.00;;;;;;5049900;28;20296;-54
2022/08/15 11:11:15;;;;;;;2.65;2.47;;;30.80;97.00;;;;;;5051706;28;20214;-55
2022/08/15 11:13:43;;;;;;;2.90;2.80;;;30.60;97.90;;;;;;5050428;28;20201;-55
2022/08/15 11:16:14;;;;;;;3.88;2.10;;;30.40;97.80;;;;;;5049212;28;20643;-54
2022/08/15 11:18:49;;;;;;;2.15;2.10;;;30.20;97.20;;;;;;5047755;28;20210;-55
2022/08/15 11:21:36;;;;;;;2.70;2.30;;;30.10;96.90;;;;;;5044300;28;20220;-55
2022/08/15 11:24:06;;;;;;;2.90;2.90;;;29.70;97.70;;;;;;5047369;28;20675;-54
2022/08/15 11:26:36;;;;;;;2.05;1.95;;;29.50;99.70;;;;;;5047299;28;20281;-55
2022/08/15 11:29:14;;;;;;;2.42;2.42;;;29.50;99.90;;;;;;5041213;28;20205;-55
2022/08/15 11:31:51;;;;;;;2.45;2.38;;;29.50;99.90;;;;;;5049844;28;20217;-54
2022/08/15 11:34:26;;;;;;;3.10;3.00;;;29.50;99.90;;;;;;5046436;28;20525;-54
2022/08/15 11:36:58;;;;;;;3.60;2.63;;;29.40;99.90;;;;;;5045447;28;20240;-55
2022/08/15 11:39:29;;;;;;;2.17;2.17;;;29.10;99.80;;;;;;5050027;28;20198;-54
2022/08/15 11:41:58;;;;;;;2.58;2.38;;;28.90;99.90;;;;;;5042713;28;20963;-54
2022/08/15 11:44:31;;;;;;;2.38;2.28;;;28.80;99.90;;;;;;5042097;28;20198;-55
2022/08/15 11:46:58;;;;;;;2.60;2.58;;;28.70;98.70;;;;;;5040913;28;20672;-54
2022/08/15 11:49:30;;;;;;;2.38;2.28;;;28.70;98.90;;;;;;5040917;28;20579;-54
2022/08/15 11:52:04;;;;;;;2.22;2.22;;;28.80;99.20;;;;;;5046378;28;20216;-54
2022/08/15 11:54:31;;;;;;;1.98;1.88;;;28.80;99.90;;;;;;5041741;28;20213;-55
2022/08/15 11:57:01;;;;;;;2.08;1.98;;;28.80;99.70;;;;;;5041733;28;20631;-54
2022/08/15 11:59:30;;;;;;;2.42;2.40;;;28.60;98.60;;;;;;5039486;28;20326;-54
2022/08/15 12:02:04;;;;;;;2.78;2.30;;;28.40;98.90;;;;;;5041080;28;20229;-54
2022/08/15 12:04:33;;;;;;;2.42;1.95;;;28.20;99.10;;;;;;5041182;28;20205;-55
2022/08/15 12:07:11;;;;;;;2.15;2.08;;;28.30;98.60;;;;;;5051130;28;20193;-54
2022/08/15 12:09:40;;;;;;;2.38;2.28;;;28.30;98.20;;;;;;5048669;28;20207;-54
2022/08/15 12:12:31;;;;;;;3.05;2.95;;;28.30;99.40;;;;;;5048172;28;20293;-55
2022/08/15 12:15:03;;;;;;;3.00;2.80;;;28.40;99.90;;;;;;5044048;28;20574;-54
2022/08/15 12:17:31;;;;;;;2.80;2.70;;;28.50;99.90;;;;;;5051305;28;20197;-54
2022/08/15 12:19:59;;;;;;;2.55;2.38;;;28.30;99.60;;;;;;5049161;28;20225;-55
2022/08/15 12:22:32;;;;;;;2.28;2.28;;;28.20;99.60;;;;;;5048617;28;20602;-54
2022/08/15 12:24:59;;;;;;;2.70;2.60;;;28.40;99.90;;;;;;5050695;28;20229;-54
2022/08/15 12:27:27;;;;;;;2.00;2.00;;;28.40;99.90;;;;;;5050707;28;20204;-55
2022/08/15 12:29:54;;;;;;;2.00;2.00;;;28.30;99.90;;;;;;5042495;28;20221;-54
2022/08/15 12:32:21;;;;;;;2.40;2.20;;;28.20;99.90;;;;;;5049673;28;20201;-54
2022/08/15 12:34:52;;;;;;;1.90;1.90;;;28.20;99.90;;;;;;5049430;28;20284;-55
2022/08/15 12:37:22;;;;;;;2.42;2.25;;;28.40;99.90;;;;;;5048446;28;20664;-54
2022/08/15 12:39:53;;;;;;;2.33;2.17;;;28.20;99.90;;;;;;5047914;28;20304;-55
2022/08/15 12:42:24;;;;;;;2.25;2.10;;;28.20;99.90;;;;;;5044116;28;20255;-54
2022/08/15 12:44:53;;;;;;;2.20;2.10;;;28.20;99.50;;;;;;5037422;28;20198;-55
2022/08/15 12:47:21;;;;;;;2.05;1.95;;;28.10;99.90;;;;;;5039305;28;20249;-55
2022/08/15 12:49:49;;;;;;;2.05;2.05;;;28.10;99.90;;;;;;5037829;28;20316;-54
2022/08/15 12:52:19;;;;;;;1.83;1.83;;;28.10;99.90;;;;;;5044560;28;20289;-54
2022/08/15 12:54:47;;;;;;;1.95;1.65;;;27.90;99.70;;;;;;5039993;28;20690;-54
2022/08/15 12:57:16;;;;;;;2.08;1.90;;;27.80;98.60;;;;;;5037425;28;20534;-54
2022/08/15 12:59:43;;;;;;;2.10;2.10;;;27.70;99.40;;;;;;5040797;28;20260;-54
2022/08/15 13:02:13;;;;;;;2.75;2.00;;;27.70;99.20;;;;;;5039208;28;20260;-54
2022/08/15 13:04:49;;;;;;;1.63;1.58;;;27.70;99.90;;;;;;5041159;28;20206;-54
2022/08/15 13:07:18;;;;;;;2.03;2.03;;;27.60;98.10;;;;;;5039194;28;20296;-54
2022/08/15 13:09:46;;;;;;;2.13;2.03;;;27.60;99.40;;;;;;5040927;28;20222;-55
2022/08/15 13:12:13;;;;;;;2.03;1.92;;;27.60;99.90;;;;;;5033393;28;20667;-55
2022/08/15 13:14:42;;;;;;;2.28;2.15;;;27.70;99.20;;;;;;5036476;28;20214;-54
2022/08/15 13:17:12;;;;;;;4.40;2.35;;;27.40;99.30;;;;;;5039294;28;20245;-54
2022/08/15 13:25:08;;;;;;;2.17;1.63;;;27.30;98.90;;;;;;5039356;28;20294;-54